sensor_id;sensor_type;location;lat;lon;timestamp;P1;durP1;ratioP1;P2;durP2;ratioP2
43650;SDS011;29247;50.944;5.382;2023-08-06T00:00:51;1.38;;;0.65;;
43650;SDS011;29247;50.944;5.382;2023-08-06T00:03:17;1.67;;;0.90;;
43650;SDS011;29247;50.944;5.382;2023-08-06T00:05:44;1.55;;;0.88;;
43650;SDS011;29247;50.944;5.382;2023-08-06T00:08:10;3.60;;;0.90;;
43650;SDS011;29247;50.944;5.382;2023-08-06T00:10:36;1.27;;;0.88;;
43650;SDS011;29247;50.944;5.382;2023-08-06T00:13:01;6.45;;;1.00;;
43650;SDS011;29247;50.944;5.382;2023-08-06T00:15:27;1.05;;;0.65;;
43650;SDS011;29247;50.944;5.382;2023-08-06T00:17:52;2.40;;;1.00;;
43650;SDS011;29247;50.944;5.382;2023-08-06T00:20:20;1.35;;;0.77;;
43650;SDS011;29247;50.944;5.382;2023-08-06T00:22:46;3.33;;;0.80;;
43650;SDS011;29247;50.944;5.382;2023-08-06T00:25:14;3.33;;;0.88;;
43650;SDS011;29247;50.944;5.382;2023-08-06T00:27:39;1.15;;;0.70;;
43650;SDS011;29247;50.944;5.382;2023-08-06T00:30:05;3.92;;;0.80;;
43650;SDS011;29247;50.944;5.382;2023-08-06T00:32:31;3.20;;;0.57;;
43650;SDS011;29247;50.944;5.382;2023-08-06T00:34:57;2.42;;;0.60;;
43650;SDS011;29247;50.944;5.382;2023-08-06T00:37:25;1.52;;;0.70;;
43650;SDS011;29247;50.944;5.382;2023-08-06T00:39:50;2.22;;;0.77;;
43650;SDS011;29247;50.944;5.382;2023-08-06T00:42:16;2.67;;;0.77;;
43650;SDS011;29247;50.944;5.382;2023-08-06T00:44:45;1.30;;;0.70;;
43650;SDS011;29247;50.944;5.382;2023-08-06T00:47:11;3.28;;;0.80;;
43650;SDS011;29247;50.944;5.382;2023-08-06T00:49:40;1.35;;;0.70;;
43650;SDS011;29247;50.944;5.382;2023-08-06T00:52:06;1.13;;;0.70;;
43650;SDS011;29247;50.944;5.382;2023-08-06T00:54:33;3.30;;;0.90;;
43650;SDS011;29247;50.944;5.382;2023-08-06T00:57:00;1.92;;;0.70;;
43650;SDS011;29247;50.944;5.382;2023-08-06T00:59:26;1.88;;;0.63;;
43650;SDS011;29247;50.944;5.382;2023-08-06T01:01:52;3.78;;;0.70;;
43650;SDS011;29247;50.944;5.382;2023-08-06T01:04:20;1.42;;;0.98;;
43650;SDS011;29247;50.944;5.382;2023-08-06T01:06:47;1.50;;;0.88;;
43650;SDS011;29247;50.944;5.382;2023-08-06T01:17:00;0.70;;;0.60;;
43650;SDS011;29247;50.944;5.382;2023-08-06T01:19:28;4.78;;;0.68;;
43650;SDS011;29247;50.944;5.382;2023-08-06T01:21:53;1.38;;;0.70;;
43650;SDS011;29247;50.944;5.382;2023-08-06T01:24:19;1.33;;;0.60;;
43650;SDS011;29247;50.944;5.382;2023-08-06T01:26:46;0.60;;;0.60;;
43650;SDS011;29247;50.944;5.382;2023-08-06T01:29:23;1.52;;;0.50;;
43650;SDS011;29247;50.944;5.382;2023-08-06T01:32:05;1.23;;;0.60;;
43650;SDS011;29247;50.944;5.382;2023-08-06T01:34:34;1.52;;;0.63;;
43650;SDS011;29247;50.944;5.382;2023-08-06T01:37:00;2.33;;;0.70;;
43650;SDS011;29247;50.944;5.382;2023-08-06T01:39:27;1.02;;;0.68;;
43650;SDS011;29247;50.944;5.382;2023-08-06T01:41:53;1.52;;;0.70;;
43650;SDS011;29247;50.944;5.382;2023-08-06T01:44:20;4.50;;;0.70;;
43650;SDS011;29247;50.944;5.382;2023-08-06T01:46:46;1.20;;;0.68;;
43650;SDS011;29247;50.944;5.382;2023-08-06T01:49:12;2.85;;;0.52;;
43650;SDS011;29247;50.944;5.382;2023-08-06T01:51:37;1.83;;;0.63;;
43650;SDS011;29247;50.944;5.382;2023-08-06T01:54:05;8.98;;;1.05;;
43650;SDS011;29247;50.944;5.382;2023-08-06T01:56:31;2.45;;;0.90;;
43650;SDS011;29247;50.944;5.382;2023-08-06T01:58:56;4.47;;;0.98;;
43650;SDS011;29247;50.944;5.382;2023-08-06T02:01:22;1.85;;;0.60;;
43650;SDS011;29247;50.944;5.382;2023-08-06T02:03:48;1.02;;;0.73;;
43650;SDS011;29247;50.944;5.382;2023-08-06T02:06:13;1.05;;;0.60;;
43650;SDS011;29247;50.944;5.382;2023-08-06T02:08:39;0.85;;;0.65;;
43650;SDS011;29247;50.944;5.382;2023-08-06T02:11:05;1.67;;;0.70;;
43650;SDS011;29247;50.944;5.382;2023-08-06T02:13:32;2.35;;;0.70;;
43650;SDS011;29247;50.944;5.382;2023-08-06T02:16:00;0.75;;;0.50;;
43650;SDS011;29247;50.944;5.382;2023-08-06T02:18:26;0.50;;;0.50;;
43650;SDS011;29247;50.944;5.382;2023-08-06T02:20:56;2.33;;;0.70;;
43650;SDS011;29247;50.944;5.382;2023-08-06T02:23:26;0.57;;;0.45;;
43650;SDS011;29247;50.944;5.382;2023-08-06T02:26:01;1.88;;;0.50;;
43650;SDS011;29247;50.944;5.382;2023-08-06T02:28:28;0.50;;;0.50;;
43650;SDS011;29247;50.944;5.382;2023-08-06T02:30:57;0.50;;;0.50;;
43650;SDS011;29247;50.944;5.382;2023-08-06T02:33:23;0.82;;;0.50;;
43650;SDS011;29247;50.944;5.382;2023-08-06T02:35:49;0.60;;;0.60;;
43650;SDS011;29247;50.944;5.382;2023-08-06T02:38:14;6.30;;;0.70;;
43650;SDS011;29247;50.944;5.382;2023-08-06T02:40:43;0.55;;;0.52;;
43650;SDS011;29247;50.944;5.382;2023-08-06T02:43:12;0.70;;;0.60;;
43650;SDS011;29247;50.944;5.382;2023-08-06T02:45:38;2.28;;;0.60;;
43650;SDS011;29247;50.944;5.382;2023-08-06T02:48:04;0.60;;;0.60;;
43650;SDS011;29247;50.944;5.382;2023-08-06T02:50:29;0.50;;;0.50;;
43650;SDS011;29247;50.944;5.382;2023-08-06T02:52:55;0.60;;;0.40;;
43650;SDS011;29247;50.944;5.382;2023-08-06T02:55:21;1.30;;;0.60;;
43650;SDS011;29247;50.944;5.382;2023-08-06T02:57:46;6.28;;;0.50;;
43650;SDS011;29247;50.944;5.382;2023-08-06T03:00:14;1.67;;;0.50;;
43650;SDS011;29247;50.944;5.382;2023-08-06T03:02:40;0.77;;;0.60;;
43650;SDS011;29247;50.944;5.382;2023-08-06T03:05:08;2.58;;;0.70;;
43650;SDS011;29247;50.944;5.382;2023-08-06T03:07:33;2.65;;;0.63;;
43650;SDS011;29247;50.944;5.382;2023-08-06T03:10:03;0.75;;;0.70;;
43650;SDS011;29247;50.944;5.382;2023-08-06T03:12:31;0.85;;;0.60;;
43650;SDS011;29247;50.944;5.382;2023-08-06T03:14:57;0.60;;;0.60;;
43650;SDS011;29247;50.944;5.382;2023-08-06T03:17:25;0.82;;;0.60;;
43650;SDS011;29247;50.944;5.382;2023-08-06T03:19:52;2.35;;;0.70;;
43650;SDS011;29247;50.944;5.382;2023-08-06T03:22:18;1.02;;;0.70;;
43650;SDS011;29247;50.944;5.382;2023-08-06T03:24:49;1.20;;;0.60;;
43650;SDS011;29247;50.944;5.382;2023-08-06T03:27:17;1.20;;;0.60;;
43650;SDS011;29247;50.944;5.382;2023-08-06T03:29:50;1.27;;;0.60;;
43650;SDS011;29247;50.944;5.382;2023-08-06T03:32:16;1.00;;;0.60;;
43650;SDS011;29247;50.944;5.382;2023-08-06T03:34:44;2.25;;;0.73;;
43650;SDS011;29247;50.944;5.382;2023-08-06T03:37:16;3.00;;;1.10;;
43650;SDS011;29247;50.944;5.382;2023-08-06T03:39:44;1.00;;;0.60;;
43650;SDS011;29247;50.944;5.382;2023-08-06T03:42:12;0.63;;;0.63;;
43650;SDS011;29247;50.944;5.382;2023-08-06T03:44:38;1.50;;;0.73;;
43650;SDS011;29247;50.944;5.382;2023-08-06T03:47:04;2.45;;;0.80;;
43650;SDS011;29247;50.944;5.382;2023-08-06T03:49:30;1.73;;;0.98;;
43650;SDS011;29247;50.944;5.382;2023-08-06T03:52:00;1.20;;;0.80;;
43650;SDS011;29247;50.944;5.382;2023-08-06T03:54:26;2.15;;;0.90;;
43650;SDS011;29247;50.944;5.382;2023-08-06T03:56:52;1.20;;;0.95;;
43650;SDS011;29247;50.944;5.382;2023-08-06T03:59:19;3.90;;;1.35;;
43650;SDS011;29247;50.944;5.382;2023-08-06T04:01:45;1.70;;;1.20;;
43650;SDS011;29247;50.944;5.382;2023-08-06T04:04:11;2.35;;;1.20;;
43650;SDS011;29247;50.944;5.382;2023-08-06T04:06:36;2.00;;;1.35;;
43650;SDS011;29247;50.944;5.382;2023-08-06T04:09:02;3.38;;;1.65;;
43650;SDS011;29247;50.944;5.382;2023-08-06T04:11:28;2.72;;;1.55;;
43650;SDS011;29247;50.944;5.382;2023-08-06T04:13:53;2.90;;;1.58;;
43650;SDS011;29247;50.944;5.382;2023-08-06T04:16:20;2.50;;;1.45;;
43650;SDS011;29247;50.944;5.382;2023-08-06T04:18:48;3.75;;;1.80;;
43650;SDS011;29247;50.944;5.382;2023-08-06T04:21:14;2.80;;;1.38;;
43650;SDS011;29247;50.944;5.382;2023-08-06T04:23:39;3.40;;;1.73;;
43650;SDS011;29247;50.944;5.382;2023-08-06T04:26:07;4.38;;;1.83;;
43650;SDS011;29247;50.944;5.382;2023-08-06T04:28:33;3.78;;;2.10;;
43650;SDS011;29247;50.944;5.382;2023-08-06T04:31:01;3.03;;;1.50;;
43650;SDS011;29247;50.944;5.382;2023-08-06T04:33:26;3.75;;;1.70;;
43650;SDS011;29247;50.944;5.382;2023-08-06T04:35:55;2.50;;;1.42;;
43650;SDS011;29247;50.944;5.382;2023-08-06T04:38:22;4.95;;;1.52;;
43650;SDS011;29247;50.944;5.382;2023-08-06T04:40:51;3.08;;;1.85;;
43650;SDS011;29247;50.944;5.382;2023-08-06T04:43:22;5.35;;;4.22;;
43650;SDS011;29247;50.944;5.382;2023-08-06T04:45:51;2.50;;;1.90;;
43650;SDS011;29247;50.944;5.382;2023-08-06T04:48:18;6.78;;;2.13;;
43650;SDS011;29247;50.944;5.382;2023-08-06T04:50:48;1.58;;;1.48;;
43650;SDS011;29247;50.944;5.382;2023-08-06T04:53:16;3.22;;;1.90;;
43650;SDS011;29247;50.944;5.382;2023-08-06T04:55:42;4.50;;;1.83;;
43650;SDS011;29247;50.944;5.382;2023-08-06T04:58:11;3.92;;;2.45;;
43650;SDS011;29247;50.944;5.382;2023-08-06T05:00:38;6.38;;;2.08;;
43650;SDS011;29247;50.944;5.382;2023-08-06T05:03:09;3.42;;;2.00;;
43650;SDS011;29247;50.944;5.382;2023-08-06T05:05:34;4.95;;;2.30;;
43650;SDS011;29247;50.944;5.382;2023-08-06T05:08:03;3.78;;;2.20;;
43650;SDS011;29247;50.944;5.382;2023-08-06T05:10:31;3.83;;;1.95;;
43650;SDS011;29247;50.944;5.382;2023-08-06T05:12:59;2.10;;;1.80;;
43650;SDS011;29247;50.944;5.382;2023-08-06T05:15:27;5.47;;;2.30;;
43650;SDS011;29247;50.944;5.382;2023-08-06T05:17:52;3.28;;;1.90;;
43650;SDS011;29247;50.944;5.382;2023-08-06T05:20:18;2.47;;;1.73;;
43650;SDS011;29247;50.944;5.382;2023-08-06T05:22:44;3.45;;;1.50;;
43650;SDS011;29247;50.944;5.382;2023-08-06T05:25:12;2.20;;;1.30;;
43650;SDS011;29247;50.944;5.382;2023-08-06T05:27:40;1.73;;;1.35;;
43650;SDS011;29247;50.944;5.382;2023-08-06T05:30:08;2.05;;;1.40;;
43650;SDS011;29247;50.944;5.382;2023-08-06T05:32:37;2.90;;;1.67;;
43650;SDS011;29247;50.944;5.382;2023-08-06T05:35:03;1.73;;;1.58;;
43650;SDS011;29247;50.944;5.382;2023-08-06T05:37:29;2.60;;;1.60;;
43650;SDS011;29247;50.944;5.382;2023-08-06T05:39:57;2.38;;;1.42;;
43650;SDS011;29247;50.944;5.382;2023-08-06T05:42:23;1.98;;;1.65;;
43650;SDS011;29247;50.944;5.382;2023-08-06T05:44:50;3.97;;;1.50;;
43650;SDS011;29247;50.944;5.382;2023-08-06T05:47:23;3.65;;;1.50;;
43650;SDS011;29247;50.944;5.382;2023-08-06T05:49:49;2.88;;;1.30;;
43650;SDS011;29247;50.944;5.382;2023-08-06T05:52:16;1.38;;;1.10;;
43650;SDS011;29247;50.944;5.382;2023-08-06T05:54:42;2.42;;;1.00;;
43650;SDS011;29247;50.944;5.382;2023-08-06T05:57:08;0.70;;;0.70;;
43650;SDS011;29247;50.944;5.382;2023-08-06T05:59:33;3.75;;;0.82;;
43650;SDS011;29247;50.944;5.382;2023-08-06T06:01:59;2.33;;;0.70;;
43650;SDS011;29247;50.944;5.382;2023-08-06T06:04:25;0.63;;;0.63;;
43650;SDS011;29247;50.944;5.382;2023-08-06T06:06:50;0.73;;;0.70;;
43650;SDS011;29247;50.944;5.382;2023-08-06T06:09:21;1.08;;;0.80;;
43650;SDS011;29247;50.944;5.382;2023-08-06T06:11:46;1.85;;;1.00;;
43650;SDS011;29247;50.944;5.382;2023-08-06T06:14:17;1.95;;;1.00;;
43650;SDS011;29247;50.944;5.382;2023-08-06T06:16:43;2.40;;;1.20;;
43650;SDS011;29247;50.944;5.382;2023-08-06T06:19:09;1.20;;;1.10;;
43650;SDS011;29247;50.944;5.382;2023-08-06T06:21:35;1.33;;;1.05;;
43650;SDS011;29247;50.944;5.382;2023-08-06T06:24:03;1.45;;;1.02;;
43650;SDS011;29247;50.944;5.382;2023-08-06T06:26:30;0.88;;;0.70;;
43650;SDS011;29247;50.944;5.382;2023-08-06T06:28:56;0.70;;;0.70;;
43650;SDS011;29247;50.944;5.382;2023-08-06T06:31:22;2.05;;;0.60;;
43650;SDS011;29247;50.944;5.382;2023-08-06T06:33:48;0.98;;;0.50;;
43650;SDS011;29247;50.944;5.382;2023-08-06T06:36:14;1.05;;;0.65;;
43650;SDS011;29247;50.944;5.382;2023-08-06T06:38:41;0.60;;;0.60;;
43650;SDS011;29247;50.944;5.382;2023-08-06T06:41:07;0.82;;;0.60;;
43650;SDS011;29247;50.944;5.382;2023-08-06T06:43:33;1.25;;;0.60;;
43650;SDS011;29247;50.944;5.382;2023-08-06T06:46:03;4.20;;;0.70;;
43650;SDS011;29247;50.944;5.382;2023-08-06T06:48:30;1.23;;;0.80;;
43650;SDS011;29247;50.944;5.382;2023-08-06T06:51:00;3.63;;;0.95;;
43650;SDS011;29247;50.944;5.382;2023-08-06T06:53:25;1.65;;;1.20;;
43650;SDS011;29247;50.944;5.382;2023-08-06T06:56:01;3.38;;;1.35;;
43650;SDS011;29247;50.944;5.382;2023-08-06T06:58:27;1.60;;;1.00;;
43650;SDS011;29247;50.944;5.382;2023-08-06T07:00:53;2.60;;;1.20;;
43650;SDS011;29247;50.944;5.382;2023-08-06T07:03:22;1.42;;;1.33;;
43650;SDS011;29247;50.944;5.382;2023-08-06T07:05:47;1.20;;;1.05;;
43650;SDS011;29247;50.944;5.382;2023-08-06T07:08:14;1.63;;;1.30;;
43650;SDS011;29247;50.944;5.382;2023-08-06T07:10:40;1.38;;;1.20;;
43650;SDS011;29247;50.944;5.382;2023-08-06T07:13:07;2.25;;;1.40;;
43650;SDS011;29247;50.944;5.382;2023-08-06T07:15:32;2.03;;;1.30;;
43650;SDS011;29247;50.944;5.382;2023-08-06T07:17:58;2.35;;;1.77;;
43650;SDS011;29247;50.944;5.382;2023-08-06T07:20:24;2.92;;;1.85;;
43650;SDS011;29247;50.944;5.382;2023-08-06T07:22:49;3.22;;;1.90;;
43650;SDS011;29247;50.944;5.382;2023-08-06T07:25:16;3.25;;;2.10;;
43650;SDS011;29247;50.944;5.382;2023-08-06T07:27:42;4.60;;;1.60;;
43650;SDS011;29247;50.944;5.382;2023-08-06T07:30:08;2.30;;;1.50;;
43650;SDS011;29247;50.944;5.382;2023-08-06T07:32:33;3.72;;;1.60;;
43650;SDS011;29247;50.944;5.382;2023-08-06T07:34:59;2.47;;;1.60;;
43650;SDS011;29247;50.944;5.382;2023-08-06T07:37:29;1.92;;;1.20;;
43650;SDS011;29247;50.944;5.382;2023-08-06T07:39:55;2.92;;;1.23;;
43650;SDS011;29247;50.944;5.382;2023-08-06T07:42:23;2.38;;;1.30;;
43650;SDS011;29247;50.944;5.382;2023-08-06T07:44:53;1.63;;;1.00;;
43650;SDS011;29247;50.944;5.382;2023-08-06T07:47:23;2.13;;;1.10;;
43650;SDS011;29247;50.944;5.382;2023-08-06T07:49:49;3.05;;;1.20;;
43650;SDS011;29247;50.944;5.382;2023-08-06T07:52:14;3.17;;;1.10;;
43650;SDS011;29247;50.944;5.382;2023-08-06T07:54:40;3.63;;;1.15;;
43650;SDS011;29247;50.944;5.382;2023-08-06T07:57:06;3.65;;;1.10;;
43650;SDS011;29247;50.944;5.382;2023-08-06T07:59:32;2.92;;;1.05;;
43650;SDS011;29247;50.944;5.382;2023-08-06T08:01:57;3.88;;;1.38;;
43650;SDS011;29247;50.944;5.382;2023-08-06T08:04:23;4.03;;;1.70;;
43650;SDS011;29247;50.944;5.382;2023-08-06T08:06:49;3.45;;;1.00;;
43650;SDS011;29247;50.944;5.382;2023-08-06T08:09:20;4.15;;;1.30;;
43650;SDS011;29247;50.944;5.382;2023-08-06T08:11:48;3.78;;;1.48;;
43650;SDS011;29247;50.944;5.382;2023-08-06T08:14:15;3.65;;;1.45;;
43650;SDS011;29247;50.944;5.382;2023-08-06T08:16:41;2.78;;;1.40;;
43650;SDS011;29247;50.944;5.382;2023-08-06T08:19:07;2.92;;;1.27;;
43650;SDS011;29247;50.944;5.382;2023-08-06T08:21:32;4.03;;;1.48;;
43650;SDS011;29247;50.944;5.382;2023-08-06T08:23:59;3.92;;;1.60;;
43650;SDS011;29247;50.944;5.382;2023-08-06T08:26:25;4.82;;;1.20;;
43650;SDS011;29247;50.944;5.382;2023-08-06T08:28:52;2.90;;;2.33;;
43650;SDS011;29247;50.944;5.382;2023-08-06T08:31:18;1.90;;;1.50;;
43650;SDS011;29247;50.944;5.382;2023-08-06T08:33:44;6.18;;;1.80;;
43650;SDS011;29247;50.944;5.382;2023-08-06T08:36:10;3.75;;;1.25;;
43650;SDS011;29247;50.944;5.382;2023-08-06T08:38:38;2.78;;;1.20;;
43650;SDS011;29247;50.944;5.382;2023-08-06T08:41:03;3.25;;;1.38;;
43650;SDS011;29247;50.944;5.382;2023-08-06T08:43:31;5.43;;;1.38;;
43650;SDS011;29247;50.944;5.382;2023-08-06T08:45:58;2.05;;;0.98;;
43650;SDS011;29247;50.944;5.382;2023-08-06T08:48:26;2.90;;;1.27;;
43650;SDS011;29247;50.944;5.382;2023-08-06T08:50:54;4.05;;;1.30;;
43650;SDS011;29247;50.944;5.382;2023-08-06T08:53:21;1.50;;;0.90;;
43650;SDS011;29247;50.944;5.382;2023-08-06T08:55:48;6.05;;;1.40;;
43650;SDS011;29247;50.944;5.382;2023-08-06T08:58:14;2.40;;;1.52;;
43650;SDS011;29247;50.944;5.382;2023-08-06T09:00:45;3.28;;;1.20;;
43650;SDS011;29247;50.944;5.382;2023-08-06T09:03:12;4.18;;;1.20;;
43650;SDS011;29247;50.944;5.382;2023-08-06T09:05:40;2.50;;;1.15;;
43650;SDS011;29247;50.944;5.382;2023-08-06T09:08:15;3.20;;;1.10;;
43650;SDS011;29247;50.944;5.382;2023-08-06T09:10:44;5.22;;;1.23;;
43650;SDS011;29247;50.944;5.382;2023-08-06T09:13:13;4.22;;;1.20;;
43650;SDS011;29247;50.944;5.382;2023-08-06T09:15:39;2.83;;;1.23;;
43650;SDS011;29247;50.944;5.382;2023-08-06T09:18:09;3.97;;;1.17;;
43650;SDS011;29247;50.944;5.382;2023-08-06T09:20:38;4.50;;;0.98;;
43650;SDS011;29247;50.944;5.382;2023-08-06T09:23:09;7.68;;;1.13;;
43650;SDS011;29247;50.944;5.382;2023-08-06T09:25:38;4.60;;;1.13;;
43650;SDS011;29247;50.944;5.382;2023-08-06T09:28:07;2.70;;;0.70;;
43650;SDS011;29247;50.944;5.382;2023-08-06T09:30:34;3.72;;;0.88;;
43650;SDS011;29247;50.944;5.382;2023-08-06T09:33:03;4.15;;;1.27;;
43650;SDS011;29247;50.944;5.382;2023-08-06T09:35:36;3.22;;;0.95;;
43650;SDS011;29247;50.944;5.382;2023-08-06T09:38:08;4.75;;;0.93;;
43650;SDS011;29247;50.944;5.382;2023-08-06T09:40:37;3.47;;;0.60;;
43650;SDS011;29247;50.944;5.382;2023-08-06T09:43:06;2.30;;;0.95;;
43650;SDS011;29247;50.944;5.382;2023-08-06T09:45:36;5.15;;;1.13;;
43650;SDS011;29247;50.944;5.382;2023-08-06T09:48:09;7.85;;;1.23;;
43650;SDS011;29247;50.944;5.382;2023-08-06T09:50:36;7.88;;;0.93;;
43650;SDS011;29247;50.944;5.382;2023-08-06T09:53:06;6.00;;;1.17;;
43650;SDS011;29247;50.944;5.382;2023-08-06T09:55:33;5.47;;;0.80;;
43650;SDS011;29247;50.944;5.382;2023-08-06T09:58:04;4.40;;;0.88;;
43650;SDS011;29247;50.944;5.382;2023-08-06T10:00:30;2.97;;;0.90;;
43650;SDS011;29247;50.944;5.382;2023-08-06T10:02:59;1.60;;;0.77;;
43650;SDS011;29247;50.944;5.382;2023-08-06T10:05:25;1.15;;;0.80;;
43650;SDS011;29247;50.944;5.382;2023-08-06T10:07:54;5.35;;;2.00;;
43650;SDS011;29247;50.944;5.382;2023-08-06T10:10:21;2.90;;;0.80;;
43650;SDS011;29247;50.944;5.382;2023-08-06T10:12:49;4.50;;;1.10;;
43650;SDS011;29247;50.944;5.382;2023-08-06T10:15:17;2.70;;;1.00;;
43650;SDS011;29247;50.944;5.382;2023-08-06T10:17:49;1.80;;;1.15;;
43650;SDS011;29247;50.944;5.382;2023-08-06T10:20:17;3.15;;;0.80;;
43650;SDS011;29247;50.944;5.382;2023-08-06T10:22:46;2.45;;;0.80;;
43650;SDS011;29247;50.944;5.382;2023-08-06T10:25:30;1.88;;;1.30;;
43650;SDS011;29247;50.944;5.382;2023-08-06T10:27:57;2.00;;;0.93;;
43650;SDS011;29247;50.944;5.382;2023-08-06T10:32:58;3.10;;;0.93;;
43650;SDS011;29247;50.944;5.382;2023-08-06T10:35:38;1.77;;;0.90;;
43650;SDS011;29247;50.944;5.382;2023-08-06T10:38:10;3.95;;;0.70;;
43650;SDS011;29247;50.944;5.382;2023-08-06T10:46:00;2.70;;;0.85;;
43650;SDS011;29247;50.944;5.382;2023-08-06T10:48:45;2.97;;;1.00;;
43650;SDS011;29247;50.944;5.382;2023-08-06T10:51:11;2.30;;;0.80;;
43650;SDS011;29247;50.944;5.382;2023-08-06T10:53:47;2.80;;;0.60;;
43650;SDS011;29247;50.944;5.382;2023-08-06T10:56:15;1.70;;;0.70;;
43650;SDS011;29247;50.944;5.382;2023-08-06T10:58:42;2.63;;;0.85;;
43650;SDS011;29247;50.944;5.382;2023-08-06T11:01:08;2.78;;;1.42;;
43650;SDS011;29247;50.944;5.382;2023-08-06T11:03:37;0.65;;;0.43;;
43650;SDS011;29247;50.944;5.382;2023-08-06T11:06:03;0.85;;;0.70;;
43650;SDS011;29247;50.944;5.382;2023-08-06T11:08:33;1.60;;;0.68;;
43650;SDS011;29247;50.944;5.382;2023-08-06T11:11:13;2.22;;;0.70;;
43650;SDS011;29247;50.944;5.382;2023-08-06T11:13:43;5.20;;;0.60;;
43650;SDS011;29247;50.944;5.382;2023-08-06T11:16:24;2.90;;;0.88;;
43650;SDS011;29247;50.944;5.382;2023-08-06T11:18:52;3.33;;;0.90;;
43650;SDS011;29247;50.944;5.382;2023-08-06T11:21:22;4.25;;;0.80;;
43650;SDS011;29247;50.944;5.382;2023-08-06T11:23:49;1.85;;;0.80;;
43650;SDS011;29247;50.944;5.382;2023-08-06T11:26:20;2.58;;;0.70;;
43650;SDS011;29247;50.944;5.382;2023-08-06T11:28:46;1.93;;;0.53;;
43650;SDS011;29247;50.944;5.382;2023-08-06T11:31:21;1.83;;;0.50;;
43650;SDS011;29247;50.944;5.382;2023-08-06T11:33:50;1.63;;;0.73;;
43650;SDS011;29247;50.944;5.382;2023-08-06T11:36:28;4.63;;;0.98;;
43650;SDS011;29247;50.944;5.382;2023-08-06T11:39:08;1.95;;;0.55;;
43650;SDS011;29247;50.944;5.382;2023-08-06T11:41:35;1.17;;;0.75;;
43650;SDS011;29247;50.944;5.382;2023-08-06T11:44:07;2.70;;;0.50;;
43650;SDS011;29247;50.944;5.382;2023-08-06T11:46:49;2.35;;;0.70;;
43650;SDS011;29247;50.944;5.382;2023-08-06T11:49:20;2.28;;;0.80;;
43650;SDS011;29247;50.944;5.382;2023-08-06T11:52:17;1.67;;;0.73;;
43650;SDS011;29247;50.944;5.382;2023-08-06T11:57:39;1.25;;;0.63;;
43650;SDS011;29247;50.944;5.382;2023-08-06T12:00:11;4.22;;;0.68;;
43650;SDS011;29247;50.944;5.382;2023-08-06T12:02:41;2.40;;;0.80;;
43650;SDS011;29247;50.944;5.382;2023-08-06T12:05:11;3.28;;;0.70;;
43650;SDS011;29247;50.944;5.382;2023-08-06T12:07:42;2.42;;;1.13;;
43650;SDS011;29247;50.944;5.382;2023-08-06T12:10:12;3.35;;;0.70;;
43650;SDS011;29247;50.944;5.382;2023-08-06T12:12:41;1.58;;;0.70;;
43650;SDS011;29247;50.944;5.382;2023-08-06T12:15:07;2.80;;;0.70;;
43650;SDS011;29247;50.944;5.382;2023-08-06T12:17:33;3.22;;;0.68;;
43650;SDS011;29247;50.944;5.382;2023-08-06T12:19:59;2.35;;;0.55;;
43650;SDS011;29247;50.944;5.382;2023-08-06T12:22:25;1.40;;;0.60;;
43650;SDS011;29247;50.944;5.382;2023-08-06T12:24:51;2.35;;;0.60;;
43650;SDS011;29247;50.944;5.382;2023-08-06T12:27:16;1.15;;;0.60;;
43650;SDS011;29247;50.944;5.382;2023-08-06T12:29:43;0.88;;;0.60;;
43650;SDS011;29247;50.944;5.382;2023-08-06T12:32:13;3.00;;;0.55;;
43650;SDS011;29247;50.944;5.382;2023-08-06T12:34:39;3.78;;;0.60;;
43650;SDS011;29247;50.944;5.382;2023-08-06T12:37:05;4.57;;;0.70;;
43650;SDS011;29247;50.944;5.382;2023-08-06T12:39:35;4.45;;;0.80;;
43650;SDS011;29247;50.944;5.382;2023-08-06T12:42:03;2.97;;;0.60;;
43650;SDS011;29247;50.944;5.382;2023-08-06T12:44:30;1.83;;;0.60;;
43650;SDS011;29247;50.944;5.382;2023-08-06T12:46:58;1.80;;;0.70;;
43650;SDS011;29247;50.944;5.382;2023-08-06T12:49:24;4.25;;;0.75;;
43650;SDS011;29247;50.944;5.382;2023-08-06T12:51:51;2.55;;;0.60;;
43650;SDS011;29247;50.944;5.382;2023-08-06T12:54:25;3.35;;;0.68;;
43650;SDS011;29247;50.944;5.382;2023-08-06T12:56:53;3.25;;;0.60;;
43650;SDS011;29247;50.944;5.382;2023-08-06T12:59:19;2.10;;;0.80;;
43650;SDS011;29247;50.944;5.382;2023-08-06T13:01:45;3.13;;;0.80;;
43650;SDS011;29247;50.944;5.382;2023-08-06T13:04:11;2.13;;;0.70;;
43650;SDS011;29247;50.944;5.382;2023-08-06T13:06:40;2.25;;;0.70;;
43650;SDS011;29247;50.944;5.382;2023-08-06T13:09:08;1.70;;;0.80;;
43650;SDS011;29247;50.944;5.382;2023-08-06T13:11:37;1.08;;;0.75;;
43650;SDS011;29247;50.944;5.382;2023-08-06T13:14:05;0.80;;;0.52;;
43650;SDS011;29247;50.944;5.382;2023-08-06T13:16:35;2.95;;;0.70;;
43650;SDS011;29247;50.944;5.382;2023-08-06T13:19:05;2.95;;;2.25;;
43650;SDS011;29247;50.944;5.382;2023-08-06T13:24:05;1.45;;;0.47;;
43650;SDS011;29247;50.944;5.382;2023-08-06T13:26:31;2.17;;;0.80;;
43650;SDS011;29247;50.944;5.382;2023-08-06T13:28:57;1.35;;;0.60;;
43650;SDS011;29247;50.944;5.382;2023-08-06T13:31:24;1.00;;;0.55;;
43650;SDS011;29247;50.944;5.382;2023-08-06T13:33:51;4.32;;;0.50;;
43650;SDS011;29247;50.944;5.382;2023-08-06T13:36:17;2.58;;;0.73;;
43650;SDS011;29247;50.944;5.382;2023-08-06T13:38:42;1.90;;;0.60;;
43650;SDS011;29247;50.944;5.382;2023-08-06T13:41:08;2.85;;;0.60;;
43650;SDS011;29247;50.944;5.382;2023-08-06T13:43:36;1.17;;;0.63;;
43650;SDS011;29247;50.944;5.382;2023-08-06T13:46:02;3.95;;;0.50;;
43650;SDS011;29247;50.944;5.382;2023-08-06T13:48:27;2.22;;;0.63;;
43650;SDS011;29247;50.944;5.382;2023-08-06T13:50:53;4.68;;;0.70;;
43650;SDS011;29247;50.944;5.382;2023-08-06T13:53:19;0.50;;;0.50;;
43650;SDS011;29247;50.944;5.382;2023-08-06T13:55:47;2.95;;;0.82;;
43650;SDS011;29247;50.944;5.382;2023-08-06T13:58:12;1.20;;;0.73;;
43650;SDS011;29247;50.944;5.382;2023-08-06T14:00:40;1.83;;;0.65;;
43650;SDS011;29247;50.944;5.382;2023-08-06T14:03:08;4.45;;;0.70;;
43650;SDS011;29247;50.944;5.382;2023-08-06T14:05:34;2.10;;;0.85;;
43650;SDS011;29247;50.944;5.382;2023-08-06T14:07:59;1.58;;;0.60;;
43650;SDS011;29247;50.944;5.382;2023-08-06T14:10:30;1.40;;;0.88;;
43650;SDS011;29247;50.944;5.382;2023-08-06T14:12:56;2.00;;;0.70;;
43650;SDS011;29247;50.944;5.382;2023-08-06T14:15:21;1.77;;;0.45;;
43650;SDS011;29247;50.944;5.382;2023-08-06T14:17:47;3.78;;;0.57;;
43650;SDS011;29247;50.944;5.382;2023-08-06T14:20:16;1.98;;;0.63;;
43650;SDS011;29247;50.944;5.382;2023-08-06T14:22:44;2.05;;;0.60;;
43650;SDS011;29247;50.944;5.382;2023-08-06T14:25:12;0.85;;;0.50;;
43650;SDS011;29247;50.944;5.382;2023-08-06T14:27:37;3.63;;;0.93;;
43650;SDS011;29247;50.944;5.382;2023-08-06T14:30:05;2.85;;;1.02;;
43650;SDS011;29247;50.944;5.382;2023-08-06T14:32:31;0.85;;;0.60;;
43650;SDS011;29247;50.944;5.382;2023-08-06T14:34:57;0.40;;;0.40;;
43650;SDS011;29247;50.944;5.382;2023-08-06T14:37:24;3.42;;;0.55;;
43650;SDS011;29247;50.944;5.382;2023-08-06T14:39:50;0.80;;;0.47;;
43650;SDS011;29247;50.944;5.382;2023-08-06T14:42:16;1.45;;;1.35;;
43650;SDS011;29247;50.944;5.382;2023-08-06T14:44:43;1.88;;;0.50;;
43650;SDS011;29247;50.944;5.382;2023-08-06T14:47:08;0.90;;;0.50;;
43650;SDS011;29247;50.944;5.382;2023-08-06T14:49:34;1.55;;;0.35;;
43650;SDS011;29247;50.944;5.382;2023-08-06T14:52:00;0.52;;;0.30;;
43650;SDS011;29247;50.944;5.382;2023-08-06T14:54:26;1.58;;;0.30;;
43650;SDS011;29247;50.944;5.382;2023-08-06T14:56:52;1.45;;;0.40;;
43650;SDS011;29247;50.944;5.382;2023-08-06T14:59:18;1.42;;;0.40;;
43650;SDS011;29247;50.944;5.382;2023-08-06T15:01:44;2.20;;;0.40;;
43650;SDS011;29247;50.944;5.382;2023-08-06T15:04:09;2.72;;;0.40;;
43650;SDS011;29247;50.944;5.382;2023-08-06T15:06:35;1.02;;;0.30;;
43650;SDS011;29247;50.944;5.382;2023-08-06T15:09:01;1.42;;;0.50;;
43650;SDS011;29247;50.944;5.382;2023-08-06T15:11:31;1.10;;;0.50;;